Time;durP1;ratioP1;P1;durP2;ratioP2;P2;SDS_P1;SDS_P2;PMS_P1;PMS_P2;Temp;Humidity;BMP_temperature;BMP_pressure;BME280_temperature;BME280_humidity;BME280_pressure;Samples;Min_cycle;Max_cycle;Signal;HPM_P1;HPM_P2
2021/09/08 00:00:42;;;;;;;6.80;3.83;;;;;;;13.22;100.00;95538.09;10283656;28;20069;-72
2021/09/08 00:05:42;;;;;;;11.75;3.50;;;;;;;13.10;100.00;95536.50;10265308;28;20309;-72
2021/09/08 00:10:43;;;;;;;13.32;3.05;;;;;;;13.06;100.00;95538.09;10282384;28;20047;-72
2021/09/08 00:15:43;;;;;;;6.47;3.73;;;;;;;13.10;100.00;95532.97;10282522;28;20092;-72
2021/09/08 00:20:44;;;;;;;7.32;3.35;;;;;;;13.10;100.00;95536.50;10264688;28;20774;-72
2021/09/08 00:25:44;;;;;;;6.30;3.63;;;;;;;13.08;100.00;95533.22;10282242;28;20129;-72
2021/09/08 00:30:44;;;;;;;7.10;3.03;;;;;;;13.04;100.00;95537.53;10281857;28;20778;-72
2021/09/08 00:35:45;;;;;;;4.70;3.63;;;;;;;12.91;100.00;95532.69;10306155;28;20096;-72
2021/09/08 00:40:45;;;;;;;7.23;4.10;;;;;;;12.88;100.00;95536.72;10322012;28;20265;-72
2021/09/08 00:45:56;;;;;;;8.70;4.47;;;;;;;12.73;100.00;95525.91;10322125;28;20037;-72
2021/09/08 00:50:57;;;;;;;9.40;4.53;;;;;;;12.68;100.00;95515.91;10328823;28;20030;-72
2021/09/08 00:55:58;;;;;;;6.28;4.65;;;;;;;12.63;100.00;95513.22;10329831;28;20034;-72
2021/09/08 01:00:59;;;;;;;11.88;5.60;;;;;;;12.68;100.00;95518.59;10330026;28;20026;-72
2021/09/08 01:05:59;;;;;;;6.22;4.70;;;;;;;12.63;100.00;95524.00;10329918;28;20038;-72
2021/09/08 01:11:00;;;;;;;7.97;4.63;;;;;;;12.53;100.00;95522.09;10312335;28;20169;-72
2021/09/08 01:16:02;;;;;;;11.65;5.72;;;;;;;12.56;100.00;95513.47;10330111;28;20288;-72
2021/09/08 01:21:04;;;;;;;8.27;5.53;;;;;;;12.57;100.00;95515.09;10334133;28;20022;-72
2021/09/08 01:26:04;;;;;;;7.78;5.53;;;;;;;12.45;100.00;95518.03;10329813;28;20030;-72
2021/09/08 01:31:06;;;;;;;8.05;5.50;;;;;;;12.31;100.00;95527.69;10327747;28;20038;-72
2021/09/08 01:36:06;;;;;;;9.45;5.18;;;;;;;12.16;100.00;95516.84;10311029;28;20030;-72
2021/09/08 01:41:06;;;;;;;10.53;6.47;;;;;;;12.14;100.00;95515.22;10327894;28;20026;-72
2021/09/08 01:46:07;;;;;;;13.23;6.37;;;;;;;12.06;100.00;95515.72;10326200;28;20165;-72
2021/09/08 01:51:07;;;;;;;10.63;5.83;;;;;;;12.10;100.00;95513.34;10328539;28;21234;-72
2021/09/08 01:56:08;;;;;;;12.83;6.57;;;;;;;12.04;100.00;95515.19;10327155;28;20494;-72
2021/09/08 02:01:08;;;;;;;11.60;6.40;;;;;;;12.00;100.00;95516.78;10326444;28;20273;-73
2021/09/08 02:06:26;;;;;;;8.88;5.78;;;;;;;11.96;100.00;95513.00;10326975;28;20034;-73
2021/09/08 02:11:28;;;;;;;6.97;5.75;;;;;;;12.00;100.00;95508.72;10334857;28;20042;-72
2021/09/08 02:16:28;;;;;;;9.63;6.25;;;;;;;11.97;100.00;95511.91;10327822;28;20038;-72
2021/09/08 02:21:28;;;;;;;9.37;7.00;;;;;;;12.04;100.00;95500.91;10327116;28;20026;-73
2021/09/08 02:26:29;;;;;;;8.90;6.83;;;;;;;12.03;100.00;95499.28;10327333;28;20038;-73
2021/09/08 02:31:30;;;;;;;10.93;6.20;;;;;;;11.93;100.00;95502.69;10326704;28;20465;-72
2021/09/08 02:36:30;;;;;;;11.68;7.55;;;;;;;12.01;100.00;95496.84;10327041;28;20041;-72
2021/09/08 02:41:32;;;;;;;11.05;6.90;;;;;;;11.85;100.00;95495.16;10326988;28;20037;-72
2021/09/08 02:46:32;;;;;;;14.73;8.10;;;;;;;11.93;100.00;95489.22;10326164;28;20040;-72
2021/09/08 02:51:33;;;;;;;9.73;6.80;;;;;;;11.91;100.00;95491.38;10326313;28;20405;-73
2021/09/08 02:56:33;;;;;;;11.10;7.70;;;;;;;11.89;100.00;95490.81;10325921;28;20274;-73
2021/09/08 03:01:33;;;;;;;12.10;6.68;;;;;;;11.90;100.00;95487.06;10325568;28;20033;-72
2021/09/08 03:06:34;;;;;;;8.90;7.17;;;;;;;11.80;100.00;95477.88;10325841;28;20049;-73
2021/09/08 03:11:34;;;;;;;12.20;7.27;;;;;;;11.85;100.00;95482.47;10319901;28;20333;-72
2021/09/08 03:16:35;;;;;;;10.32;8.05;;;;;;;11.92;100.00;95484.94;10325295;28;20049;-72
2021/09/08 03:21:35;;;;;;;12.10;6.93;;;;;;;11.89;100.00;95480.88;10325225;28;20022;-72
2021/09/08 03:26:36;;;;;;;7.60;6.90;;;;;;;11.84;100.00;95490.81;10324646;28;20113;-72
2021/09/08 03:31:36;;;;;;;10.50;7.37;;;;;;;11.76;100.00;95490.25;10316070;28;20034;-72
2021/09/08 03:36:36;;;;;;;10.45;8.23;;;;;;;11.62;100.00;95497.16;10283688;28;20034;-72
2021/09/08 03:41:37;;;;;;;11.87;7.53;;;;;;;11.68;100.00;95496.13;10282806;28;20106;-72
2021/09/08 03:46:37;;;;;;;9.63;6.43;;;;;;;11.63;100.00;95496.09;10284019;28;20278;-72
2021/09/08 03:51:38;;;;;;;8.93;6.70;;;;;;;11.63;100.00;95496.91;10283706;28;20038;-72
2021/09/08 03:56:38;;;;;;;12.83;7.00;;;;;;;11.59;100.00;95487.72;10283583;28;20800;-72
2021/09/08 04:01:38;;;;;;;11.23;7.75;;;;;;;11.58;100.00;95496.88;10282943;28;20285;-72
2021/09/08 04:06:39;;;;;;;8.73;7.00;;;;;;;11.54;100.00;95500.34;10310305;28;20517;-72
2021/09/08 04:11:39;;;;;;;10.77;7.23;;;;;;;11.51;100.00;95498.19;10323324;28;20041;-72
2021/09/08 04:16:40;;;;;;;12.47;7.27;;;;;;;11.52;100.00;95495.22;10305608;28;20074;-72
2021/09/08 04:21:40;;;;;;;13.68;7.35;;;;;;;11.49;100.00;95493.06;10322481;28;20041;-72
2021/09/08 04:26:41;;;;;;;10.73;7.60;;;;;;;11.46;100.00;95494.38;10305421;28;20083;-72
2021/09/08 04:31:42;;;;;;;14.75;7.55;;;;;;;11.54;100.00;95489.56;10322695;28;20034;-72
2021/09/08 04:36:42;;;;;;;11.93;7.47;;;;;;;11.56;100.00;95495.53;10322368;28;20092;-72
2021/09/08 04:41:43;;;;;;;13.50;8.47;;;;;;;11.56;100.00;95487.44;10319910;28;20040;-72
2021/09/08 04:46:43;;;;;;;9.85;7.38;;;;;;;11.77;100.00;95499.13;10315704;28;20042;-72
2021/09/08 04:51:44;;;;;;;15.83;7.53;;;;;;;11.78;100.00;95506.16;10315566;28;20398;-72
2021/09/08 04:56:44;;;;;;;15.13;7.55;;;;;;;11.98;100.00;95510.84;10315701;28;20278;-72
2021/09/08 05:01:44;;;;;;;16.43;7.77;;;;;;;12.08;100.00;95510.06;10316104;28;20034;-72
2021/09/08 05:06:45;;;;;;;10.03;6.83;;;;;;;12.11;100.00;95499.59;10315030;28;20053;-72
2021/09/08 05:11:45;;;;;;;12.00;5.97;;;;;;;12.27;100.00;95510.44;10313858;28;20042;-72
2021/09/08 05:16:46;;;;;;;10.07;6.78;;;;;;;12.50;100.00;95506.44;10313951;28;20047;-73
2021/09/08 05:21:46;;;;;;;9.10;5.47;;;;;;;12.75;100.00;95510.25;10313548;28;20041;-73
2021/09/08 05:26:47;;;;;;;7.72;4.82;;;;;;;12.79;100.00;95505.97;10316678;28;20474;-72
2021/09/08 05:31:47;;;;;;;6.95;3.45;;;;;;;12.90;100.00;95506.78;10316987;28;20130;-72
2021/09/08 05:36:47;;;;;;;17.97;3.63;;;;;;;12.90;100.00;95510.28;10323513;28;20038;-73
2021/09/08 05:41:48;;;;;;;5.47;3.63;;;;;;;12.86;100.00;95503.00;10324112;28;20285;-73
2021/09/08 05:46:48;;;;;;;16.33;7.03;;;;;;;13.08;100.00;95489.25;10323752;28;20709;-73
2021/09/08 05:51:49;;;;;;;6.33;3.93;;;;;;;13.53;100.00;95497.59;10322412;28;20413;-73
2021/09/08 05:56:49;;;;;;;8.37;3.90;;;;;;;13.70;100.00;95490.00;10320952;28;20034;-72
2021/09/08 06:01:49;;;;;;;8.07;3.50;;;;;;;13.88;100.00;95485.88;10321068;28;20030;-72
2021/09/08 06:06:50;;;;;;;4.63;3.47;;;;;;;14.28;100.00;95483.31;10312821;28;20317;-72
2021/09/08 06:11:54;;;;;;;8.05;4.88;;;;;;;14.76;100.00;95478.16;10288432;28;20062;-72
2021/09/08 06:16:55;;;;;;;6.13;3.42;;;;;;;15.27;100.00;95481.59;10288421;28;20030;-72
2021/09/08 06:21:55;;;;;;;5.57;3.67;;;;;;;15.51;100.00;95485.13;10288192;28;20558;-72
2021/09/08 06:26:55;;;;;;;6.47;3.23;;;;;;;15.75;100.00;95484.34;10288403;28;20035;-72
2021/09/08 06:31:56;;;;;;;12.97;3.70;;;;;;;15.84;100.00;95488.09;10270521;28;20562;-72
2021/09/08 06:36:56;;;;;;;9.40;3.60;;;;;;;15.82;100.00;95487.59;10288099;28;20270;-72
2021/09/08 06:41:56;;;;;;;10.47;2.63;;;;;;;16.12;100.00;95487.53;10287433;28;20031;-72
2021/09/08 06:46:57;;;;;;;7.77;3.30;;;;;;;16.59;100.00;95485.84;10287123;28;20033;-72
2021/09/08 06:51:57;;;;;;;9.07;3.90;;;;;;;16.99;100.00;95493.69;10286922;28;20065;-71
2021/09/08 06:56:58;;;;;;;4.13;2.67;;;;;;;17.47;100.00;95504.34;10286579;28;20840;-71
2021/09/08 07:02:01;;;;;;;4.33;3.00;;;;;;;17.85;97.36;95496.03;10286865;28;20034;-70
2021/09/08 07:07:02;;;;;;;5.72;2.80;;;;;;;17.96;95.81;95495.84;10286415;28;20537;-72
2021/09/08 07:12:04;;;;;;;7.97;2.60;;;;;;;19.37;90.64;95493.34;10286161;28;20035;-73
2021/09/08 07:17:04;;;;;;;4.80;2.15;;;;;;;21.34;69.13;95493.81;10286715;28;20084;-73
2021/09/08 07:22:05;;;;;;;7.53;3.03;;;;;;;23.11;55.20;95494.66;10285941;28;20084;-72
2021/09/08 07:27:05;;;;;;;11.27;2.70;;;;;;;23.86;50.74;95485.59;10268458;28;20058;-72
2021/09/08 07:32:08;;;;;;;7.78;2.80;;;;;;;24.53;49.19;95493.66;10291469;28;20335;-73
2021/09/08 07:37:08;;;;;;;3.00;1.88;;;;;;;22.97;48.85;95489.44;10325143;28;20081;-72
2021/09/08 07:42:09;;;;;;;5.45;2.47;;;;;;;21.77;53.28;95505.00;10324455;28;20030;-71
2021/09/08 07:47:10;;;;;;;4.97;2.17;;;;;;;21.49;53.29;95508.91;10324042;28;20026;-70
2021/09/08 07:52:10;;;;;;;3.80;2.33;;;;;;;20.76;51.68;95516.94;10357712;28;20042;-72
2021/09/08 07:57:11;;;;;;;3.37;1.63;;;;;;;20.82;51.96;95507.50;10364293;28;20034;-72
2021/09/08 08:02:11;;;;;;;4.67;2.10;;;;;;;21.04;52.28;95506.50;10364054;28;20748;-70
2021/09/08 08:07:11;;;;;;;8.10;2.23;;;;;;;21.53;51.53;95500.91;10364363;28;20129;-72
2021/09/08 08:12:12;;;;;;;4.37;1.97;;;;;;;21.83;47.79;95495.50;10364220;28;20050;-71
2021/09/08 08:17:12;;;;;;;7.97;2.15;;;;;;;22.33;46.47;95489.38;10363633;28;20183;-72
2021/09/08 08:22:13;;;;;;;8.27;2.83;;;;;;;22.89;44.80;95485.66;10323463;28;20038;-71
2021/09/08 08:27:13;;;;;;;3.55;2.00;;;;;;;22.41;44.80;95497.88;10299590;28;20038;-71
2021/09/08 08:32:14;;;;;;;4.00;2.08;;;;;;;23.00;42.96;95489.59;10285765;28;20037;-73
2021/09/08 08:37:14;;;;;;;9.80;1.80;;;;;;;22.90;41.83;95491.94;10282843;28;20027;-73
2021/09/08 08:42:34;;;;;;;3.77;2.03;;;;;;;23.43;42.43;95495.88;10283273;28;20512;-71
2021/09/08 08:47:35;;;;;;;2.80;1.52;;;;;;;24.39;39.68;95505.00;10264742;28;20035;-71
2021/09/08 08:52:35;;;;;;;4.15;1.40;;;;;;;24.53;39.90;95480.75;10320230;28;20031;-72
2021/09/08 08:57:36;;;;;;;6.28;1.55;;;;;;;24.17;41.18;95479.59;10322911;28;20041;-73
2021/09/08 09:02:39;;;;;;;8.05;2.05;;;;;;;23.14;42.60;95472.91;10321318;28;20482;-72
2021/09/08 09:07:43;;;;;;;4.97;1.52;;;;;;;23.46;42.63;95461.50;10323293;28;20101;-73
2021/09/08 09:12:46;;;;;;;5.00;1.60;;;;;;;24.17;40.92;95467.81;10328617;28;20121;-76
2021/09/08 09:17:47;;;;;;;2.53;1.48;;;;;;;23.38;41.13;95474.94;10329372;28;20042;-76
2021/09/08 09:22:57;;;;;;;4.35;2.30;;;;;;;22.42;43.62;95459.19;10329166;28;20522;-75
2021/09/08 09:28:00;;;;;;;3.42;1.85;;;;;;;22.50;46.08;95457.56;10357468;28;20026;-74
2021/09/08 09:33:01;;;;;;;9.60;1.80;;;;;;;22.62;45.77;95454.91;10341359;28;20034;-74
2021/09/08 09:38:04;;;;;;;7.55;2.35;;;;;;;22.87;43.28;95442.13;10323438;28;20097;-74
2021/09/08 09:43:07;;;;;;;6.45;2.33;;;;;;;23.23;43.73;95422.66;10328766;28;20081;-74
2021/09/08 09:48:08;;;;;;;4.32;2.10;;;;;;;23.49;42.34;95436.13;10328320;28;20368;-75
2021/09/08 09:53:09;;;;;;;2.08;1.30;;;;;;;24.32;40.27;95428.69;10328602;28;20034;-75
2021/09/08 09:58:09;;;;;;;2.27;1.50;;;;;;;25.54;36.48;95434.19;10328153;28;20026;-75
2021/09/08 10:03:10;;;;;;;1.85;1.40;;;;;;;27.51;33.91;95421.75;10328091;28;20026;-75
2021/09/08 10:08:15;;;;;;;3.53;1.20;;;;;;;27.64;31.13;95428.69;10328082;28;20062;-75
2021/09/08 10:13:21;;;;;;;1.83;1.10;;;;;;;27.03;31.98;95421.94;10328626;28;20045;-75
2021/09/08 10:18:25;;;;;;;2.30;1.47;;;;;;;28.10;31.50;95423.22;10310098;28;20092;-75
2021/09/08 10:23:25;;;;;;;2.83;1.63;;;;;;;29.04;28.86;95412.69;10327747;28;20458;-75
2021/09/08 10:28:29;;;;;;;3.83;2.50;;;;;;;29.90;27.89;95416.44;10328450;28;20136;-75
2021/09/08 10:33:30;;;;;;;2.70;1.30;;;;;;;27.42;30.51;95421.97;10327251;28;20309;-72
2021/09/08 10:38:32;;;;;;;3.70;1.40;;;;;;;27.48;30.94;95419.69;10327394;28;20170;-75
2021/09/08 10:43:35;;;;;;;5.45;1.60;;;;;;;28.01;31.14;95411.59;10327191;28;20109;-75
2021/09/08 10:48:44;;;;;;;2.40;1.77;;;;;;;28.09;31.46;95413.31;10327796;28;20038;-75
2021/09/08 10:54:01;;;;;;;2.80;1.58;;;;;;;27.93;32.26;95409.84;10326759;28;20034;-75
2021/09/08 10:59:01;;;;;;;4.63;1.60;;;;;;;28.70;30.56;95418.97;10327213;28;20541;-75
2021/09/08 11:04:02;;;;;;;4.77;2.20;;;;;;;27.14;32.13;95408.38;10309719;28;20030;-75
2021/09/08 11:09:06;;;;;;;2.58;1.60;;;;;;;26.32;34.29;95403.47;10326695;28;20054;-74
2021/09/08 11:14:06;;;;;;;2.15;1.48;;;;;;;25.27;35.13;95399.22;10326581;28;20530;-75
2021/09/08 11:19:12;;;;;;;3.20;1.43;;;;;;;25.17;36.19;95406.03;10326119;28;20034;-74
2021/09/08 11:24:13;;;;;;;4.55;1.50;;;;;;;23.91;37.78;95416.78;10325865;28;20340;-75
2021/09/08 11:29:14;;;;;;;6.47;1.92;;;;;;;22.92;40.26;95418.41;10325687;28;20022;-74
2021/09/08 11:34:26;;;;;;;3.35;1.77;;;;;;;22.23;43.80;95415.81;10325031;28;20041;-75
2021/09/08 11:39:27;;;;;;;5.05;1.90;;;;;;;22.11;43.78;95408.28;10307613;28;20035;-75
2021/09/08 11:44:27;;;;;;;3.60;1.65;;;;;;;21.47;44.37;95411.91;10325409;28;20085;-74
2021/09/08 11:49:28;;;;;;;10.53;4.50;;;;;;;20.56;47.39;95401.69;10325086;28;20498;-74
2021/09/08 11:54:28;;;;;;;3.53;1.60;;;;;;;20.84;50.77;95390.47;10324842;28;20038;-74
2021/09/08 11:59:30;;;;;;;2.53;1.70;;;;;;;21.22;49.25;95394.44;10324827;28;20037;-75
2021/09/08 12:04:31;;;;;;;6.72;1.70;;;;;;;21.25;47.96;95372.75;10324834;28;20058;-74
2021/09/08 12:09:33;;;;;;;4.07;2.42;;;;;;;21.29;47.84;95367.41;10324364;28;20129;-74
2021/09/08 12:14:39;;;;;;;3.45;1.70;;;;;;;21.50;47.75;95375.69;10324153;28;20038;-74
2021/09/08 12:19:53;;;;;;;3.30;1.85;;;;;;;21.61;47.21;95366.03;10323807;28;20112;-73
2021/09/08 12:24:57;;;;;;;3.78;1.90;;;;;;;21.65;46.54;95371.66;10305927;28;20038;-74
2021/09/08 12:30:05;;;;;;;3.95;1.75;;;;;;;21.40;46.80;95365.13;10323016;28;20034;-74
2021/09/08 12:35:07;;;;;;;4.75;2.28;;;;;;;21.39;49.56;95352.56;10323165;28;20553;-74
2021/09/08 12:40:14;;;;;;;4.07;2.03;;;;;;;21.01;49.55;95343.19;10323565;28;20034;-74
2021/09/08 12:45:14;;;;;;;11.43;2.55;;;;;;;21.33;49.80;95341.03;10323333;28;20406;-74
2021/09/08 12:50:14;;;;;;;5.80;1.97;;;;;;;21.03;49.30;95343.69;10323336;28;20026;-73
2021/09/08 12:55:15;;;;;;;6.43;2.43;;;;;;;21.00;51.20;95345.13;10323270;28;20809;-74
2021/09/08 13:00:16;;;;;;;4.47;2.03;;;;;;;20.91;49.96;95344.34;10305579;28;20026;-73
2021/09/08 13:05:17;;;;;;;6.45;2.42;;;;;;;20.90;50.35;95345.47;10323571;28;20470;-74
2021/09/08 13:10:18;;;;;;;8.93;4.00;;;;;;;20.95;50.45;95344.50;10322853;28;20502;-74
2021/09/08 13:15:18;;;;;;;5.05;1.60;;;;;;;21.04;51.36;95330.81;10322632;28;20038;-74
2021/09/08 13:20:19;;;;;;;7.57;2.00;;;;;;;21.08;50.67;95324.38;10323075;28;20042;-73
2021/09/08 13:25:19;;;;;;;7.80;2.00;;;;;;;20.76;50.86;95321.09;10322413;28;20027;-74
2021/09/08 13:30:20;;;;;;;2.38;1.20;;;;;;;20.68;51.83;95323.81;10322600;28;20105;-74
2021/09/08 13:35:20;;;;;;;4.80;3.17;;;;;;;20.34;53.11;95306.31;10322720;28;20034;-74
2021/09/08 13:40:21;;;;;;;4.13;2.30;;;;;;;20.15;55.30;95301.97;10304671;28;20034;-73
2021/09/08 13:45:22;;;;;;;7.80;2.78;;;;;;;20.32;54.50;95296.50;10322470;28;20289;-73
2021/09/08 13:50:23;;;;;;;5.50;2.03;;;;;;;20.43;54.91;95296.19;10322039;28;20026;-74
2021/09/08 13:55:23;;;;;;;9.95;2.63;;;;;;;20.48;54.67;95296.00;10325222;28;20031;-74
2021/09/08 14:00:24;;;;;;;3.05;1.58;;;;;;;20.34;54.78;95298.91;10329208;28;20038;-74
2021/09/08 14:05:25;;;;;;;8.25;2.15;;;;;;;20.30;56.99;95289.75;10328445;28;20540;-74
2021/09/08 14:10:27;;;;;;;7.05;2.22;;;;;;;20.36;54.63;95296.66;10328651;28;20057;-73
2021/09/08 14:15:28;;;;;;;3.78;1.50;;;;;;;20.21;55.38;95297.94;10328248;28;20117;-73
2021/09/08 14:20:28;;;;;;;6.10;2.42;;;;;;;20.09;56.84;95289.59;10328691;28;20022;-73
2021/09/08 14:25:29;;;;;;;4.05;2.30;;;;;;;19.96;57.67;95281.22;10327934;28;20438;-74
2021/09/08 14:30:30;;;;;;;3.83;1.88;;;;;;;19.78;60.17;95283.09;10328183;28;20037;-73
2021/09/08 14:35:31;;;;;;;7.38;2.65;;;;;;;19.72;59.66;95281.66;10326522;28;20418;-74
2021/09/08 14:40:32;;;;;;;6.43;2.17;;;;;;;19.66;60.24;95284.84;10327546;28;20030;-74
2021/09/08 14:45:33;;;;;;;8.63;2.17;;;;;;;19.54;59.79;95286.28;10326411;28;20210;-73
2021/09/08 14:50:33;;;;;;;3.78;2.15;;;;;;;19.39;61.31;95275.81;10324855;28;20246;-75
2021/09/08 14:55:34;;;;;;;6.17;2.73;;;;;;;19.27;61.93;95277.22;10325088;28;20050;-73
2021/09/08 15:00:34;;;;;;;6.55;2.08;;;;;;;19.22;62.16;95269.16;10325044;28;20850;-74
2021/09/08 15:05:35;;;;;;;5.83;2.20;;;;;;;19.02;60.94;95275.16;10323888;28;20451;-74
2021/09/08 15:10:36;;;;;;;3.05;1.83;;;;;;;18.76;62.35;95270.38;10324550;28;20049;-74
2021/09/08 15:15:36;;;;;;;3.50;1.80;;;;;;;18.47;62.43;95279.00;10324892;28;20030;-74
2021/09/08 15:20:37;;;;;;;12.63;1.93;;;;;;;18.37;63.16;95271.91;10324464;28;20029;-74
2021/09/08 15:25:37;;;;;;;10.77;2.63;;;;;;;18.19;62.36;95276.41;10324710;28;20273;-74
2021/09/08 15:30:37;;;;;;;3.70;1.97;;;;;;;17.88;64.41;95272.44;10324312;28;20281;-74
2021/09/08 15:35:38;;;;;;;8.23;2.25;;;;;;;17.82;66.21;95262.81;10306693;28;20336;-74
2021/09/08 15:40:39;;;;;;;4.20;1.83;;;;;;;17.81;67.47;95260.41;10323873;28;20371;-74
2021/09/08 15:45:39;;;;;;;5.53;2.35;;;;;;;17.80;67.39;95269.66;10306264;28;20445;-74
2021/09/08 15:50:40;;;;;;;4.50;2.10;;;;;;;17.77;67.34;95260.19;10305933;28;20030;-74
2021/09/08 15:55:41;;;;;;;3.85;2.00;;;;;;;17.67;67.92;95253.06;10323463;28;20084;-74
2021/09/08 16:00:42;;;;;;;6.50;2.03;;;;;;;17.68;67.89;95257.41;10322174;28;20470;-74
2021/09/08 16:05:43;;;;;;;6.28;2.05;;;;;;;17.66;66.14;95256.88;10322509;28;20045;-74
2021/09/08 16:10:43;;;;;;;6.43;2.15;;;;;;;17.69;65.97;95252.75;10322090;28;20391;-74
2021/09/08 16:15:44;;;;;;;7.22;2.72;;;;;;;17.66;67.92;95239.78;10322658;28;20038;-74
2021/09/08 16:20:44;;;;;;;4.05;2.20;;;;;;;17.70;67.83;95246.22;10322383;28;20030;-74
2021/09/08 16:25:45;;;;;;;4.57;2.67;;;;;;;17.71;68.33;95240.47;10322500;28;20030;-74
2021/09/08 16:30:45;;;;;;;3.93;2.03;;;;;;;17.58;68.95;95238.56;10322333;28;20026;-74
2021/09/08 16:35:46;;;;;;;6.03;2.00;;;;;;;17.62;69.62;95239.56;10322325;28;20281;-74
2021/09/08 16:40:47;;;;;;;9.68;2.40;;;;;;;17.56;70.17;95233.44;10321766;28;20030;-73
2021/09/08 16:45:47;;;;;;;3.88;2.15;;;;;;;17.58;70.25;95242.13;10321715;28;20470;-73
2021/09/08 16:50:48;;;;;;;4.25;2.28;;;;;;;17.56;70.52;95240.81;10321938;28;20460;-74
2021/09/08 16:55:48;;;;;;;6.00;1.77;;;;;;;17.47;70.69;95240.72;10321487;28;20042;-74
2021/09/08 17:00:49;;;;;;;4.07;1.95;;;;;;;17.39;72.32;95241.44;10321347;28;20039;-74
2021/09/08 17:05:51;;;;;;;2.55;1.95;;;;;;;17.20;73.72;95242.34;10320057;28;20493;-74
2021/09/08 17:10:51;;;;;;;3.42;2.33;;;;;;;17.12;76.66;95253.94;10321637;28;20474;-74
2021/09/08 17:15:51;;;;;;;5.40;2.33;;;;;;;17.16;77.10;95249.50;10322067;28;20031;-74
2021/09/08 17:20:52;;;;;;;7.87;2.43;;;;;;;17.18;76.67;95252.72;10321477;28;20109;-74
2021/09/08 17:25:53;;;;;;;6.93;2.88;;;;;;;17.17;76.81;95259.25;10321631;28;20681;-74
2021/09/08 17:30:55;;;;;;;11.97;4.13;;;;;;;17.14;79.28;95251.72;10325473;28;20045;-75
2021/09/08 17:35:55;;;;;;;7.10;3.13;;;;;;;17.19;79.60;95257.06;10311568;28;20050;-75
2021/09/08 17:46:08;;;;;;;3.38;1.95;;;;;;;17.07;78.21;95259.47;10328008;28;20097;-74
2021/09/08 17:51:10;;;;;;;8.48;2.25;;;;;;;16.89;79.49;95261.97;10327177;28;20030;-75
2021/09/08 17:56:10;;;;;;;2.95;1.77;;;;;;;16.99;79.99;95271.03;10327593;28;20030;-75
2021/09/08 18:01:11;;;;;;;6.67;1.80;;;;;;;16.79;83.71;95266.75;10328150;28;20896;-74
2021/09/08 18:06:11;;;;;;;9.70;3.03;;;;;;;16.85;84.61;95277.19;10326408;28;20281;-73
2021/09/08 18:11:11;;;;;;;6.85;2.33;;;;;;;16.91;84.31;95276.06;10326575;28;20038;-74
2021/09/08 18:16:12;;;;;;;7.00;2.40;;;;;;;16.90;84.38;95281.78;10327317;28;20026;-74
2021/09/08 18:21:12;;;;;;;3.20;1.95;;;;;;;16.76;85.03;95279.03;10327181;28;20034;-74
2021/09/08 18:26:13;;;;;;;6.70;2.17;;;;;;;16.77;85.89;95275.19;10326514;28;20738;-75
2021/09/08 18:31:13;;;;;;;9.05;2.25;;;;;;;16.66;87.64;95276.47;10326061;28;20030;-75
2021/09/08 18:36:13;;;;;;;3.60;2.10;;;;;;;16.68;87.89;95279.69;10326011;28;20030;-74
2021/09/08 18:41:14;;;;;;;4.00;2.00;;;;;;;16.57;89.16;95279.06;10326838;28;20273;-75
2021/09/08 18:46:15;;;;;;;3.67;1.60;;;;;;;16.57;90.77;95288.00;10327500;28;20026;-75
2021/09/08 18:51:15;;;;;;;4.55;1.73;;;;;;;16.61;89.97;95276.56;10329839;28;20674;-74
2021/09/08 18:56:16;;;;;;;3.67;2.27;;;;;;;16.50;91.00;95290.31;10329252;28;20038;-74
2021/09/08 19:01:16;;;;;;;7.00;2.15;;;;;;;16.44;91.38;95288.78;10329480;28;20034;-75
2021/09/08 19:06:17;;;;;;;6.40;2.05;;;;;;;16.46;91.20;95286.56;10329295;28;20128;-75
2021/09/08 19:11:17;;;;;;;3.40;2.00;;;;;;;16.50;90.82;95284.06;10328861;28;20589;-74
2021/09/08 19:16:18;;;;;;;5.65;2.40;;;;;;;16.56;90.69;95283.69;10328974;28;20269;-74
2021/09/08 19:21:18;;;;;;;6.73;1.90;;;;;;;16.65;91.00;95285.72;10328701;28;20408;-75
2021/09/08 19:26:18;;;;;;;4.83;2.10;;;;;;;16.67;92.25;95275.38;10328408;28;20026;-75
2021/09/08 19:31:19;;;;;;;5.22;2.60;;;;;;;16.64;92.34;95279.47;10310546;28;20055;-74
2021/09/08 19:36:19;;;;;;;6.27;2.30;;;;;;;16.61;92.53;95282.81;10328068;28;20030;-74
2021/09/08 19:41:20;;;;;;;6.63;2.13;;;;;;;16.54;93.31;95280.47;10327812;28;20018;-74
2021/09/08 19:46:21;;;;;;;3.10;2.10;;;;;;;16.43;95.35;95283.66;10326383;28;20057;-74
2021/09/08 19:51:21;;;;;;;4.05;2.10;;;;;;;16.35;96.53;95282.41;10323583;28;20105;-74
2021/09/08 19:56:23;;;;;;;5.05;2.50;;;;;;;16.39;97.57;95278.00;10324088;28;20042;-75
2021/09/08 20:01:24;;;;;;;4.20;2.00;;;;;;;16.29;99.71;95270.84;10323736;28;20019;-75
2021/09/08 20:06:24;;;;;;;9.15;2.53;;;;;;;16.19;100.00;95279.94;10323214;28;20034;-74
2021/09/08 20:11:25;;;;;;;3.00;1.90;;;;;;;16.18;100.00;95283.75;10322608;28;20470;-75
2021/09/08 20:16:25;;;;;;;4.82;1.80;;;;;;;15.98;100.00;95281.38;10322811;28;20031;-74
2021/09/08 20:21:26;;;;;;;5.83;2.13;;;;;;;15.89;100.00;95276.63;10323007;28;20035;-75
2021/09/08 20:26:26;;;;;;;3.60;2.30;;;;;;;15.77;100.00;95281.63;10323004;28;20281;-74
2021/09/08 20:31:27;;;;;;;2.30;1.50;;;;;;;15.81;100.00;95282.69;10322647;28;20030;-75
2021/09/08 20:36:27;;;;;;;4.90;2.50;;;;;;;15.74;100.00;95284.94;10305293;28;20278;-75
2021/09/08 20:41:27;;;;;;;4.53;2.30;;;;;;;15.70;100.00;95292.03;10322222;28;20018;-75
2021/09/08 20:46:29;;;;;;;5.53;2.50;;;;;;;15.57;100.00;95284.59;10322030;28;20269;-74
2021/09/08 20:51:31;;;;;;;2.90;1.98;;;;;;;15.42;100.00;95283.72;10331608;28;20552;-74
2021/09/08 20:56:31;;;;;;;6.88;1.98;;;;;;;15.56;100.00;95283.81;10321912;28;20026;-74
2021/09/08 21:01:32;;;;;;;4.90;1.75;;;;;;;15.52;100.00;95285.50;10322052;28;20033;-75
2021/09/08 21:06:32;;;;;;;4.95;2.55;;;;;;;15.54;100.00;95277.88;10329204;28;20046;-74
2021/09/08 21:11:33;;;;;;;6.05;2.22;;;;;;;15.40;100.00;95272.34;10329816;28;20034;-74
2021/09/08 21:16:33;;;;;;;3.15;2.13;;;;;;;15.38;100.00;95278.06;10330046;28;20525;-74
2021/09/08 21:21:33;;;;;;;4.57;1.90;;;;;;;15.25;100.00;95272.53;10330069;28;20025;-75
2021/09/08 21:26:34;;;;;;;2.77;2.10;;;;;;;15.23;100.00;95282.88;10329509;28;20277;-75
2021/09/08 21:31:35;;;;;;;2.78;1.95;;;;;;;15.19;100.00;95278.00;10329144;28;20037;-75
2021/09/08 21:36:35;;;;;;;3.05;1.77;;;;;;;15.11;100.00;95284.09;10329319;28;20033;-75
2021/09/08 21:41:35;;;;;;;3.67;1.97;;;;;;;15.07;100.00;95279.53;10329161;28;20023;-75
2021/09/08 21:46:36;;;;;;;12.60;6.38;;;;;;;14.94;100.00;95278.31;10329253;28;20069;-75
2021/09/08 21:51:36;;;;;;;5.13;2.93;;;;;;;15.02;100.00;95273.06;10328379;28;20026;-74
2021/09/08 21:56:36;;;;;;;3.83;2.10;;;;;;;15.02;100.00;95261.44;10328644;28;20834;-75
2021/09/08 22:01:37;;;;;;;2.67;1.85;;;;;;;15.02;100.00;95262.25;10328024;28;20359;-75
2021/09/08 22:06:37;;;;;;;3.00;2.13;;;;;;;15.14;100.00;95252.91;10326990;28;20517;-74
2021/09/08 22:11:38;;;;;;;3.30;1.73;;;;;;;15.11;100.00;95259.72;10326782;28;20092;-74
2021/09/08 22:16:39;;;;;;;5.28;2.33;;;;;;;15.09;100.00;95258.41;10325590;28;20088;-75
2021/09/08 22:21:39;;;;;;;3.20;1.98;;;;;;;15.12;100.00;95255.09;10326317;28;20049;-75
2021/09/08 22:26:40;;;;;;;7.20;2.07;;;;;;;15.08;100.00;95263.00;10326246;28;20180;-74
2021/09/08 22:31:40;;;;;;;5.47;2.20;;;;;;;15.02;100.00;95256.03;10327089;28;20031;-74
2021/09/08 22:36:41;;;;;;;6.00;1.88;;;;;;;14.89;100.00;95267.53;10326884;28;20310;-75
2021/09/08 22:41:42;;;;;;;6.70;2.10;;;;;;;14.90;100.00;95258.34;10327032;28;20027;-74
2021/09/08 22:46:43;;;;;;;16.02;2.22;;;;;;;14.82;100.00;95265.19;10326694;28;20018;-74
2021/09/08 22:51:43;;;;;;;3.80;2.10;;;;;;;14.89;100.00;95262.13;10326072;28;20037;-74
2021/09/08 22:56:43;;;;;;;3.23;2.33;;;;;;;14.64;100.00;95254.00;10324896;28;20031;-74
2021/09/08 23:01:44;;;;;;;7.67;3.17;;;;;;;14.66;100.00;95268.03;10324612;28;20030;-74
2021/09/08 23:06:44;;;;;;;3.77;2.27;;;;;;;14.64;100.00;95255.91;10324461;28;20120;-74
2021/09/08 23:11:45;;;;;;;6.33;2.97;;;;;;;14.58;100.00;95254.28;10324780;28;20353;-74